Terminal Aerodrome Forecast
Issued by NWS

Home | Current Version | Previous Version | Text Only | Print | Product List | Glossary On
Versions: 1 2 3 4 5 6 7 8 9 10 11 12 13 14 15
000
FTUS46 KSGX 191239 AAA
TAFCRQ
TAF AMD
KCRQ 191239Z 1913/2012 VRB03KT 3SM BR HZ BKN005
      TEMPO 1913/1915 1/2SM FG OVC003
     FM191700 VRB05KT 6SM HZ SCT008
     FM191900 25009KT P6SM FEW010 SCT250
     FM200300 VRB04KT P6SM OVC010=

USA.gov is the U.S. government's official web portal to all federal, state and local government web resources and services.